Time;durP1;ratioP1;P1;durP2;ratioP2;P2;SDS_P1;SDS_P2;PMS_P1;PMS_P2;Temp;Humidity;BMP_temperature;BMP_pressure;BME280_temperature;BME280_humidity;BME280_pressure;Samples;Min_cycle;Max_cycle;Signal;HPM_P1;HPM_P2
2022/06/14 00:03:12;;;;;;;3.40;1.80;;;19.30;99.90;;;;;;7392002;19;20154;-73
2022/06/14 00:05:39;;;;;;;3.17;2.00;;;19.20;99.90;;;;;;7390474;19;20127;-74
2022/06/14 00:08:05;;;;;;;2.47;1.90;;;19.20;99.90;;;;;;7394087;19;20131;-72
2022/06/14 00:10:31;;;;;;;2.55;1.95;;;19.20;99.90;;;;;;7392066;19;20210;-74
2022/06/14 00:12:57;;;;;;;2.78;1.90;;;19.20;99.90;;;;;;7392622;19;20155;-74
2022/06/14 00:15:23;;;;;;;2.70;2.03;;;19.10;99.90;;;;;;7390757;19;20193;-76
2022/06/14 00:17:49;;;;;;;4.25;2.10;;;19.10;99.90;;;;;;7387005;19;20161;-74
2022/06/14 00:20:15;;;;;;;3.88;2.45;;;19.10;99.90;;;;;;7388924;19;20174;-73
2022/06/14 00:22:41;;;;;;;3.55;1.95;;;19.10;99.90;;;;;;7392077;19;20142;-69
2022/06/14 00:25:07;;;;;;;2.88;1.80;;;19.20;99.90;;;;;;7392330;19;20154;-73
2022/06/14 00:27:33;;;;;;;5.30;2.40;;;19.00;99.90;;;;;;7391225;19;20155;-75
2022/06/14 00:29:59;;;;;;;2.83;1.80;;;19.00;99.90;;;;;;7391584;19;20158;-69
2022/06/14 00:32:25;;;;;;;5.20;2.05;;;19.00;99.90;;;;;;7388883;19;20135;-73
2022/06/14 00:34:50;;;;;;;5.00;2.05;;;19.00;99.90;;;;;;7390394;19;20149;-69
2022/06/14 00:37:18;;;;;;;2.92;2.03;;;18.90;99.90;;;;;;7392523;19;20138;-74
2022/06/14 00:39:45;;;;;;;5.20;2.40;;;18.90;99.90;;;;;;7393157;19;20139;-72
2022/06/14 00:42:21;;;;;;;5.07;2.08;;;18.90;99.90;;;;;;7390312;19;20150;-74
2022/06/14 00:45:08;;;;;;;3.67;1.90;;;19.00;99.90;;;;;;7390682;19;20505;-71
2022/06/14 00:47:39;;;;;;;7.47;2.22;;;18.90;99.90;;;;;;7392827;19;20616;-74
2022/06/14 00:50:15;;;;;;;5.63;2.10;;;18.90;99.90;;;;;;7387280;19;20157;-71
2022/06/14 00:52:56;;;;;;;4.00;1.83;;;18.80;99.90;;;;;;7390562;19;20142;-74
2022/06/14 00:55:37;;;;;;;4.50;2.33;;;18.80;99.90;;;;;;7388317;19;20134;-73
2022/06/14 00:58:15;;;;;;;3.75;1.98;;;18.80;99.90;;;;;;7391638;19;20139;-70
2022/06/14 01:00:54;;;;;;;3.22;2.10;;;18.80;99.90;;;;;;7386175;19;20150;-70
2022/06/14 01:03:23;;;;;;;4.03;2.00;;;18.80;99.90;;;;;;7393731;19;20142;-73
2022/06/14 01:06:06;;;;;;;4.45;2.33;;;18.80;99.90;;;;;;7393218;19;20147;-71
2022/06/14 01:08:43;;;;;;;3.70;2.08;;;18.80;99.90;;;;;;7389530;19;20572;-72
2022/06/14 01:11:13;;;;;;;3.15;2.03;;;18.70;99.90;;;;;;7389768;19;20218;-71
2022/06/14 01:13:40;;;;;;;4.20;2.28;;;18.60;99.90;;;;;;7391096;19;20145;-70
2022/06/14 01:16:07;;;;;;;3.45;2.20;;;18.60;99.90;;;;;;7390047;19;20165;-70
2022/06/14 01:18:33;;;;;;;3.38;1.98;;;18.50;99.90;;;;;;7387140;19;20148;-69
2022/06/14 01:20:59;;;;;;;4.95;2.15;;;18.50;99.90;;;;;;7391771;19;20678;-73
2022/06/14 01:23:25;;;;;;;2.95;2.15;;;18.50;99.90;;;;;;7387264;19;20142;-74
2022/06/14 01:26:15;;;;;;;5.35;2.22;;;18.50;99.90;;;;;;7389409;19;20153;-71
2022/06/14 01:28:45;;;;;;;3.80;2.10;;;18.50;99.90;;;;;;7389872;19;20146;-70
2022/06/14 01:31:14;;;;;;;3.78;2.25;;;18.40;99.90;;;;;;7384657;19;20135;-73
2022/06/14 01:33:45;;;;;;;3.80;2.17;;;18.40;99.90;;;;;;7389485;19;20141;-70
2022/06/14 01:36:20;;;;;;;3.70;2.10;;;18.30;99.90;;;;;;7389587;19;20501;-71
2022/06/14 01:38:46;;;;;;;5.15;2.10;;;18.30;99.90;;;;;;7389385;19;20149;-70
2022/06/14 01:41:31;;;;;;;5.45;2.42;;;18.40;99.90;;;;;;7389417;19;20617;-71
2022/06/14 01:44:31;;;;;;;9.45;2.15;;;18.50;99.90;;;;;;7388217;19;20165;-74
2022/06/14 01:47:09;;;;;;;5.65;2.17;;;18.50;99.90;;;;;;7389077;19;20150;-73
2022/06/14 01:52:54;;;;;;;4.43;2.50;;;17.70;99.90;;;;;;7388373;19;20148;-71
2022/06/14 01:55:50;;;;;;;4.28;2.22;;;17.80;99.90;;;;;;7388251;19;20511;-69
2022/06/14 01:58:58;;;;;;;3.97;2.35;;;17.90;99.90;;;;;;7387513;19;20481;-74
2022/06/14 02:01:37;;;;;;;6.70;2.65;;;17.40;99.90;;;;;;7389997;19;20139;-70
2022/06/14 02:07:01;;;;;;;3.38;2.17;;;17.60;99.90;;;;;;7391057;19;20134;-74
2022/06/14 02:09:54;;;;;;;6.05;2.67;;;17.80;99.90;;;;;;7387823;19;20509;-71
2022/06/14 02:12:33;;;;;;;4.18;2.00;;;18.00;99.90;;;;;;7388903;19;20135;-70
2022/06/14 02:15:31;;;;;;;4.22;2.42;;;18.00;99.90;;;;;;7388096;19;20138;-74
2022/06/14 02:18:12;;;;;;;4.60;2.42;;;18.00;99.90;;;;;;7388823;19;20141;-73
2022/06/14 02:20:47;;;;;;;4.38;2.38;;;18.00;99.90;;;;;;7388766;19;20158;-71
2022/06/14 02:23:13;;;;;;;5.68;2.70;;;17.80;99.90;;;;;;7391221;19;20151;-73
2022/06/14 02:25:56;;;;;;;5.35;2.38;;;17.80;99.90;;;;;;7385717;19;20206;-74
2022/06/14 02:28:32;;;;;;;6.93;2.53;;;17.90;99.90;;;;;;7385490;19;20214;-74
2022/06/14 02:31:09;;;;;;;3.55;2.50;;;17.90;99.90;;;;;;7385966;19;20153;-73
2022/06/14 02:33:41;;;;;;;2.53;1.88;;;17.90;99.90;;;;;;7389902;19;20135;-73
2022/06/14 02:36:38;;;;;;;4.38;2.60;;;17.60;99.90;;;;;;7388402;19;20130;-74
2022/06/14 02:39:15;;;;;;;4.03;2.38;;;17.20;99.90;;;;;;7387107;19;20151;-69
2022/06/14 02:41:41;;;;;;;4.60;2.70;;;17.20;99.90;;;;;;7389049;19;20135;-70
2022/06/14 02:44:26;;;;;;;4.55;2.67;;;17.60;99.90;;;;;;7392517;19;20170;-73
2022/06/14 02:47:03;;;;;;;4.93;2.70;;;17.70;99.90;;;;;;7397030;19;20594;-74
2022/06/14 02:49:37;;;;;;;4.28;2.53;;;17.70;99.90;;;;;;7395814;19;20155;-70
2022/06/14 02:52:36;;;;;;;4.65;2.40;;;17.80;99.90;;;;;;7395148;19;20137;-73
2022/06/14 02:55:19;;;;;;;4.45;2.60;;;17.70;99.90;;;;;;7388394;19;20178;-74
2022/06/14 02:57:55;;;;;;;5.45;2.75;;;17.50;99.90;;;;;;7395599;19;20149;-70
2022/06/14 03:00:28;;;;;;;6.22;2.85;;;17.60;99.90;;;;;;7394923;19;20782;-72
2022/06/14 03:03:14;;;;;;;3.95;2.58;;;17.70;99.90;;;;;;7391825;19;20158;-70
2022/06/14 03:05:54;;;;;;;4.70;2.35;;;17.70;99.90;;;;;;7392994;19;20161;-74
2022/06/14 03:08:24;;;;;;;6.18;2.65;;;17.70;99.90;;;;;;7395522;19;20134;-75
2022/06/14 03:11:05;;;;;;;4.45;2.53;;;17.60;99.90;;;;;;7394281;19;20198;-69
2022/06/14 03:13:31;;;;;;;3.45;2.38;;;17.70;99.90;;;;;;7394310;19;20135;-73
2022/06/14 03:16:19;;;;;;;5.20;2.90;;;17.60;99.90;;;;;;7390797;19;20206;-73
2022/06/14 03:19:16;;;;;;;5.22;2.90;;;17.60;99.90;;;;;;7393110;19;20135;-74
2022/06/14 03:21:53;;;;;;;5.75;2.75;;;17.60;99.90;;;;;;7393920;19;20158;-70
2022/06/14 03:24:31;;;;;;;3.45;2.13;;;17.60;99.90;;;;;;7392776;19;20745;-74
2022/06/14 03:27:05;;;;;;;4.95;2.45;;;17.50;99.90;;;;;;7395242;19;20153;-73
2022/06/14 03:29:37;;;;;;;5.95;2.63;;;17.30;99.90;;;;;;7394786;19;20138;-71
2022/06/14 03:32:16;;;;;;;4.90;2.53;;;17.10;99.90;;;;;;7391104;19;20198;-69
2022/06/14 03:35:13;;;;;;;5.85;2.20;;;17.30;99.90;;;;;;7394162;19;20171;-74
2022/06/14 03:37:39;;;;;;;3.53;2.42;;;17.50;99.90;;;;;;7391070;19;20225;-74
2022/06/14 03:40:09;;;;;;;7.47;2.75;;;17.60;99.90;;;;;;7391640;19;20146;-70
2022/06/14 03:42:36;;;;;;;8.00;2.92;;;17.50;99.90;;;;;;7394241;19;20139;-69
2022/06/14 03:45:03;;;;;;;6.35;2.85;;;17.60;99.90;;;;;;7395261;19;20143;-73
2022/06/14 03:47:30;;;;;;;3.88;3.13;;;17.20;99.90;;;;;;7393072;19;20168;-70
2022/06/14 03:50:18;;;;;;;7.22;2.60;;;17.30;99.90;;;;;;7394386;19;20143;-70
2022/06/14 03:52:49;;;;;;;5.68;3.00;;;17.50;99.90;;;;;;7393470;19;20152;-73
2022/06/14 03:56:08;;;;;;;5.47;3.35;;;17.40;99.90;;;;;;7388465;19;20139;-75
2022/06/14 03:59:05;;;;;;;5.20;3.20;;;17.40;99.90;;;;;;7389946;19;20474;-70
2022/06/14 04:01:46;;;;;;;6.95;2.95;;;17.20;99.90;;;;;;7388192;19;20142;-74
2022/06/14 04:04:30;;;;;;;6.68;3.20;;;16.90;99.90;;;;;;7389404;19;20175;-71
2022/06/14 04:07:03;;;;;;;7.13;2.50;;;16.90;99.90;;;;;;7392613;19;20463;-71
2022/06/14 04:09:45;;;;;;;4.75;2.65;;;17.10;99.90;;;;;;7393327;19;20146;-69
2022/06/14 04:12:21;;;;;;;4.10;2.90;;;17.30;99.90;;;;;;7392029;19;20522;-70
2022/06/14 04:14:50;;;;;;;4.68;2.70;;;17.30;99.90;;;;;;7390404;19;20158;-70
2022/06/14 04:17:28;;;;;;;5.20;2.55;;;17.20;99.90;;;;;;7393332;19;20686;-69
2022/06/14 04:20:10;;;;;;;4.82;2.63;;;17.30;99.90;;;;;;7391736;19;20198;-70
2022/06/14 04:22:54;;;;;;;7.00;3.20;;;17.20;99.90;;;;;;7393604;19;20175;-75
2022/06/14 04:25:53;;;;;;;5.72;2.92;;;17.20;99.90;;;;;;7392194;19;20159;-70
2022/06/14 04:28:25;;;;;;;4.38;2.65;;;17.30;99.90;;;;;;7394214;19;20149;-70
2022/06/14 04:31:09;;;;;;;4.93;2.90;;;17.40;99.90;;;;;;7389285;19;20131;-73
2022/06/14 04:33:41;;;;;;;5.22;2.95;;;17.30;99.90;;;;;;7392956;19;20135;-73
2022/06/14 04:36:15;;;;;;;6.28;2.75;;;17.30;99.90;;;;;;7392002;19;20590;-69
2022/06/14 04:39:04;;;;;;;3.60;2.65;;;17.30;99.90;;;;;;7392536;19;20160;-72
2022/06/14 04:41:57;;;;;;;4.72;3.15;;;17.50;99.90;;;;;;7390871;19;20166;-70
2022/06/14 04:44:41;;;;;;;6.72;3.45;;;17.50;99.90;;;;;;7392293;19;20482;-73
2022/06/14 04:47:23;;;;;;;6.40;3.30;;;17.70;99.90;;;;;;7390615;19;20146;-73
2022/06/14 04:50:18;;;;;;;7.57;3.22;;;17.60;99.90;;;;;;7390498;19;20598;-70
2022/06/14 04:53:11;;;;;;;7.72;3.20;;;17.50;99.90;;;;;;7389930;19;20214;-74
2022/06/14 04:56:01;;;;;;;6.82;3.20;;;17.60;99.90;;;;;;7387812;19;20148;-71
2022/06/14 04:58:31;;;;;;;7.53;3.58;;;17.70;99.90;;;;;;7391839;19;20123;-74
2022/06/14 05:01:02;;;;;;;6.78;3.28;;;17.70;99.90;;;;;;7390406;19;20622;-70
2022/06/14 05:03:33;;;;;;;5.85;3.55;;;17.60;99.90;;;;;;7387261;19;20188;-73
2022/06/14 05:06:06;;;;;;;5.47;2.95;;;17.70;99.90;;;;;;7388996;19;20475;-71
2022/06/14 05:08:52;;;;;;;5.55;3.45;;;17.60;99.90;;;;;;7389013;19;20123;-74
2022/06/14 05:11:40;;;;;;;7.90;3.63;;;17.40;99.90;;;;;;7390766;19;20149;-73
2022/06/14 05:14:12;;;;;;;7.88;3.58;;;17.50;99.90;;;;;;7389527;19;20162;-71
2022/06/14 05:16:44;;;;;;;8.02;3.50;;;17.70;99.90;;;;;;7392143;19;20213;-70
2022/06/14 05:19:41;;;;;;;7.68;3.90;;;17.70;99.90;;;;;;7389608;19;20146;-73
2022/06/14 05:22:38;;;;;;;5.38;3.42;;;17.70;99.90;;;;;;7389514;19;20519;-70
2022/06/14 05:25:06;;;;;;;5.65;3.70;;;17.90;99.90;;;;;;7389298;19;21084;-74
2022/06/14 05:27:44;;;;;;;7.07;4.05;;;17.80;99.90;;;;;;7393703;19;20141;-70
2022/06/14 05:30:25;;;;;;;7.38;3.72;;;17.70;99.90;;;;;;7391451;19;20156;-71
2022/06/14 05:33:14;;;;;;;7.05;3.70;;;17.80;99.90;;;;;;7390687;19;20152;-73
2022/06/14 05:35:43;;;;;;;6.35;4.13;;;17.80;99.90;;;;;;7391300;19;20139;-70
2022/06/14 05:38:11;;;;;;;8.02;3.75;;;17.80;99.90;;;;;;7387779;19;20142;-72
2022/06/14 05:40:43;;;;;;;10.88;5.55;;;17.80;99.90;;;;;;7393374;19;20524;-69
2022/06/14 05:43:12;;;;;;;6.28;3.70;;;17.70;99.90;;;;;;7392464;19;20150;-68
2022/06/14 05:45:43;;;;;;;5.45;3.38;;;17.80;99.90;;;;;;7392899;19;20135;-69
2022/06/14 05:48:15;;;;;;;5.40;3.28;;;17.90;99.90;;;;;;7392353;19;20197;-72
2022/06/14 05:50:47;;;;;;;7.95;4.63;;;17.90;99.90;;;;;;7389069;19;20167;-72
2022/06/14 05:53:24;;;;;;;7.97;3.65;;;17.90;99.90;;;;;;7390366;19;20146;-68
2022/06/14 05:55:58;;;;;;;6.28;3.90;;;17.80;99.90;;;;;;7389848;19;20142;-67
2022/06/14 05:58:45;;;;;;;7.25;3.42;;;18.00;99.90;;;;;;7392355;19;20134;-68
2022/06/14 06:01:56;;;;;;;10.77;5.50;;;17.80;99.90;;;;;;7385901;19;20179;-69
2022/06/14 06:04:38;;;;;;;8.60;4.05;;;17.90;99.90;;;;;;7384652;19;20170;-70
2022/06/14 06:07:09;;;;;;;7.63;3.88;;;18.10;99.90;;;;;;7387484;19;20608;-70
2022/06/14 06:09:45;;;;;;;7.65;4.10;;;18.10;99.90;;;;;;7388567;19;20154;-73
2022/06/14 06:12:35;;;;;;;9.15;3.63;;;18.40;99.90;;;;;;7383495;19;20154;-73
2022/06/14 06:15:42;;;;;;;5.72;3.55;;;19.50;99.90;;;;;;7388112;19;20152;-70
2022/06/14 06:18:44;;;;;;;6.82;3.70;;;20.40;99.90;;;;;;7387049;19;20659;-73
2022/06/14 06:21:38;;;;;;;7.15;3.67;;;21.00;99.90;;;;;;7393270;19;20146;-73
2022/06/14 06:24:11;;;;;;;6.07;3.75;;;21.50;99.90;;;;;;7396313;19;20133;-72
2022/06/14 06:26:42;;;;;;;6.20;3.63;;;22.00;99.90;;;;;;7396132;19;20155;-70
2022/06/14 06:29:23;;;;;;;6.70;3.33;;;22.40;99.90;;;;;;7394508;19;20192;-70
2022/06/14 06:31:49;;;;;;;8.75;3.67;;;22.90;99.90;;;;;;7396245;19;20141;-73
2022/06/14 06:34:17;;;;;;;6.47;3.45;;;23.00;99.90;;;;;;7395394;19;20594;-72
2022/06/14 06:37:14;;;;;;;7.88;3.30;;;22.30;99.90;;;;;;7393356;19;20161;-70
2022/06/14 06:39:52;;;;;;;11.45;3.80;;;23.20;99.90;;;;;;7396983;19;20123;-72
2022/06/14 06:42:46;;;;;;;7.95;3.85;;;23.80;99.60;;;;;;7394677;19;20594;-74
2022/06/14 06:45:23;;;;;;;5.43;3.47;;;23.70;99.40;;;;;;7393284;19;20142;-73
2022/06/14 06:47:54;;;;;;;6.88;3.75;;;23.50;99.50;;;;;;7394268;19;20138;-74
2022/06/14 06:50:25;;;;;;;6.60;3.58;;;23.60;99.50;;;;;;7394108;19;20662;-73
2022/06/14 06:52:54;;;;;;;6.47;3.67;;;23.80;99.10;;;;;;7393727;19;20159;-71
2022/06/14 06:55:40;;;;;;;6.10;3.58;;;23.90;98.90;;;;;;7395225;19;20494;-72
2022/06/14 06:58:17;;;;;;;7.53;3.50;;;24.00;98.20;;;;;;7391580;19;20138;-70
2022/06/14 07:00:44;;;;;;;13.60;4.22;;;23.70;98.60;;;;;;7388887;19;20145;-74
2022/06/14 07:03:23;;;;;;;6.50;3.03;;;23.80;98.30;;;;;;7395575;19;20138;-71
2022/06/14 07:05:56;;;;;;;7.10;3.28;;;23.70;98.30;;;;;;7392452;19;20134;-73
2022/06/14 07:08:41;;;;;;;9.32;3.72;;;24.00;97.90;;;;;;7395250;19;20131;-71
2022/06/14 07:11:14;;;;;;;6.32;3.28;;;23.90;98.00;;;;;;7393404;19;20176;-71
2022/06/14 07:13:51;;;;;;;7.13;3.25;;;24.10;97.50;;;;;;7392460;19;20134;-73
2022/06/14 07:16:27;;;;;;;6.88;3.03;;;24.20;97.30;;;;;;7392649;19;20159;-73
2022/06/14 07:19:44;;;;;;;9.73;4.07;;;24.50;97.00;;;;;;7391863;19;20154;-71
2022/06/14 07:22:16;;;;;;;6.97;3.53;;;24.70;96.70;;;;;;7388915;19;20154;-74
2022/06/14 07:24:55;;;;;;;6.35;3.67;;;24.70;96.40;;;;;;7392357;19;20469;-71
2022/06/14 07:27:26;;;;;;;5.50;3.00;;;24.60;96.20;;;;;;7393773;19;20131;-73
2022/06/14 07:30:05;;;;;;;5.50;3.25;;;24.70;96.10;;;;;;7389569;19;20135;-73
2022/06/14 07:32:35;;;;;;;5.20;3.30;;;24.60;96.20;;;;;;7393918;19;20488;-73
2022/06/14 07:35:01;;;;;;;9.05;3.30;;;24.60;96.20;;;;;;7389388;19;20139;-75
2022/06/14 07:37:54;;;;;;;7.95;3.03;;;24.60;96.20;;;;;;7389934;19;20134;-73
2022/06/14 07:40:33;;;;;;;6.15;3.50;;;25.00;95.60;;;;;;7391564;19;20146;-70
2022/06/14 07:43:13;;;;;;;5.32;2.72;;;24.80;95.30;;;;;;7391152;19;20185;-74
2022/06/14 07:45:48;;;;;;;5.97;2.80;;;25.00;95.20;;;;;;7391226;19;20134;-74
2022/06/14 07:48:38;;;;;;;4.28;3.08;;;25.10;94.60;;;;;;7391477;19;20141;-73
2022/06/14 07:51:16;;;;;;;10.18;5.15;;;24.50;94.80;;;;;;7392269;19;20145;-73
2022/06/14 07:53:47;;;;;;;7.20;4.78;;;24.30;95.10;;;;;;7387341;19;20153;-71
2022/06/14 07:56:22;;;;;;;6.32;3.72;;;24.60;95.00;;;;;;7394066;19;20126;-70
2022/06/14 07:58:50;;;;;;;5.45;3.25;;;25.00;94.10;;;;;;7392169;19;20155;-70
2022/06/14 08:01:30;;;;;;;6.57;2.90;;;25.20;94.10;;;;;;7392498;19;20191;-71
2022/06/14 08:04:20;;;;;;;5.78;3.10;;;25.30;93.50;;;;;;7388838;19;20597;-70
2022/06/14 08:07:00;;;;;;;6.63;3.78;;;25.00;93.50;;;;;;7405322;19;20131;-71
2022/06/14 08:09:52;;;;;;;5.13;2.63;;;25.30;93.50;;;;;;7392215;19;20515;-71
2022/06/14 08:12:30;;;;;;;4.95;2.85;;;25.50;92.90;;;;;;7391256;19;20487;-73
2022/06/14 08:15:16;;;;;;;8.43;3.15;;;25.70;92.20;;;;;;7390568;19;20138;-73
2022/06/14 08:17:47;;;;;;;5.07;3.22;;;25.70;92.20;;;;;;7389429;19;20481;-74
2022/06/14 08:20:26;;;;;;;5.80;2.50;;;26.30;91.90;;;;;;7389546;19;20192;-72
2022/06/14 08:22:55;;;;;;;7.63;2.63;;;26.70;90.80;;;;;;7390305;19;20157;-73
2022/06/14 08:25:32;;;;;;;5.55;2.45;;;26.40;90.00;;;;;;7391725;19;20605;-71
2022/06/14 08:28:03;;;;;;;6.43;2.90;;;26.70;90.30;;;;;;7391716;19;20138;-75
2022/06/14 08:30:40;;;;;;;4.70;2.42;;;27.00;89.50;;;;;;7387717;19;20137;-71
2022/06/14 08:33:18;;;;;;;3.80;2.60;;;26.90;89.00;;;;;;7392485;19;20145;-72
2022/06/14 08:35:51;;;;;;;4.22;2.40;;;26.80;89.50;;;;;;7391954;19;20139;-73
2022/06/14 08:38:38;;;;;;;3.13;2.10;;;27.00;90.20;;;;;;7389248;19;20209;-73
2022/06/14 08:41:30;;;;;;;6.35;2.50;;;27.10;88.20;;;;;;7388912;19;20133;-73
2022/06/14 08:44:02;;;;;;;5.30;2.65;;;26.80;87.80;;;;;;7387925;19;20139;-71
2022/06/14 08:46:47;;;;;;;2.35;2.03;;;26.30;86.80;;;;;;7391776;19;20175;-70
2022/06/14 08:49:34;;;;;;;6.43;3.92;;;25.90;87.80;;;;;;7385627;19;20178;-70
2022/06/14 08:52:23;;;;;;;3.72;2.40;;;25.50;89.70;;;;;;7388555;19;20154;-69
2022/06/14 08:55:31;;;;;;;5.35;2.50;;;25.90;88.80;;;;;;7388833;19;20502;-73
2022/06/14 08:58:32;;;;;;;5.07;2.90;;;26.10;88.10;;;;;;7389991;19;20134;-70
2022/06/14 09:01:19;;;;;;;4.97;2.72;;;26.20;88.10;;;;;;7386173;19;20134;-71
2022/06/14 09:04:02;;;;;;;3.72;2.72;;;26.10;88.60;;;;;;7390851;19;20611;-71
2022/06/14 09:06:53;;;;;;;5.47;2.55;;;25.80;89.10;;;;;;7387574;19;20150;-71
2022/06/14 09:09:57;;;;;;;4.50;2.25;;;25.80;88.80;;;;;;7388910;19;20161;-74
2022/06/14 09:13:07;;;;;;;4.32;2.53;;;25.40;89.80;;;;;;7391881;19;20179;-73
2022/06/14 09:15:52;;;;;;;6.07;2.42;;;25.30;90.10;;;;;;7389174;19;20149;-70
2022/06/14 09:18:49;;;;;;;6.82;3.13;;;25.00;90.40;;;;;;7387182;19;20141;-74
2022/06/14 09:21:22;;;;;;;6.57;2.78;;;25.20;90.50;;;;;;7389512;19;20562;-71
2022/06/14 09:24:20;;;;;;;6.57;3.40;;;25.50;90.10;;;;;;7387197;19;20202;-74
2022/06/14 09:27:13;;;;;;;6.55;2.40;;;25.30;90.20;;;;;;7386875;19;20147;-73
2022/06/14 09:30:09;;;;;;;4.97;2.42;;;25.20;90.00;;;;;;7395525;19;20151;-72
2022/06/14 09:33:10;;;;;;;2.83;2.17;;;24.90;90.20;;;;;;7389139;19;20130;-71
2022/06/14 09:35:57;;;;;;;5.40;3.65;;;24.80;90.80;;;;;;7386261;19;20146;-70
2022/06/14 09:38:34;;;;;;;3.75;2.33;;;25.00;90.60;;;;;;7388815;19;20451;-71
2022/06/14 09:41:41;;;;;;;4.38;2.53;;;25.00;90.30;;;;;;7387679;19;20151;-71
2022/06/14 09:44:19;;;;;;;4.20;2.22;;;25.00;90.40;;;;;;7388147;19;20145;-70
2022/06/14 09:47:11;;;;;;;3.63;2.80;;;24.80;90.60;;;;;;7384615;19;20570;-74
2022/06/14 09:49:46;;;;;;;5.28;2.60;;;24.70;90.50;;;;;;7385801;19;20145;-74
2022/06/14 09:52:24;;;;;;;6.55;2.40;;;24.50;90.50;;;;;;7386096;19;20157;-70
2022/06/14 09:55:21;;;;;;;4.32;2.20;;;24.40;90.80;;;;;;7386642;19;20146;-72
2022/06/14 09:57:56;;;;;;;3.10;1.95;;;24.70;90.70;;;;;;7385229;19;20150;-73
2022/06/14 10:00:48;;;;;;;4.15;2.45;;;25.20;88.60;;;;;;7390665;19;20145;-74
2022/06/14 10:03:37;;;;;;;4.13;2.85;;;25.50;89.60;;;;;;7385142;19;20228;-70
2022/06/14 10:06:37;;;;;;;5.38;2.22;;;25.70;87.40;;;;;;7387202;19;20146;-70
2022/06/14 10:09:31;;;;;;;3.45;2.65;;;25.50;86.40;;;;;;7387187;19;20154;-73
2022/06/14 10:12:24;;;;;;;2.67;2.10;;;25.50;87.80;;;;;;7385411;19;20135;-69
2022/06/14 10:15:04;;;;;;;4.97;2.67;;;25.40;87.60;;;;;;7387376;19;20135;-71
2022/06/14 10:17:42;;;;;;;4.00;2.42;;;25.40;87.60;;;;;;7388834;19;20250;-73
2022/06/14 10:20:45;;;;;;;3.13;1.75;;;25.50;87.30;;;;;;7385687;19;20677;-74
2022/06/14 10:23:57;;;;;;;3.63;2.25;;;25.50;87.20;;;;;;7385559;19;20522;-73
2022/06/14 10:30:07;;;;;;;3.00;2.03;;;25.20;89.00;;;;;;7386624;19;20144;-74
2022/06/14 10:32:54;;;;;;;4.88;2.40;;;25.30;88.70;;;;;;7383136;19;20154;-71
2022/06/14 10:35:50;;;;;;;5.75;2.08;;;25.40;88.80;;;;;;7384850;19;20150;-70
2022/06/14 10:38:22;;;;;;;2.75;2.33;;;25.40;88.00;;;;;;7383877;19;20608;-71
2022/06/14 10:41:06;;;;;;;2.38;2.17;;;25.20;87.80;;;;;;7386914;19;20190;-74
2022/06/14 10:43:31;;;;;;;3.80;2.45;;;25.00;88.50;;;;;;7385631;19;20139;-75
2022/06/14 10:46:29;;;;;;;4.05;2.40;;;24.70;88.60;;;;;;7387943;19;20161;-69
2022/06/14 10:49:13;;;;;;;4.13;2.28;;;24.50;89.90;;;;;;7385295;19;20166;-72
2022/06/14 10:52:09;;;;;;;3.78;2.17;;;24.70;89.30;;;;;;7387591;19;20587;-72
2022/06/14 10:55:03;;;;;;;4.93;2.47;;;25.00;88.30;;;;;;7386040;19;20135;-73
2022/06/14 10:57:44;;;;;;;3.10;1.98;;;25.10;87.30;;;;;;7387241;19;20163;-73
2022/06/14 11:00:23;;;;;;;3.15;2.08;;;25.20;87.90;;;;;;7384090;19;20171;-72
2022/06/14 11:03:14;;;;;;;6.45;2.08;;;25.40;87.40;;;;;;7385774;19;20171;-73
2022/06/14 11:05:52;;;;;;;3.63;2.53;;;25.30;86.80;;;;;;7393384;19;20146;-73
2022/06/14 11:08:26;;;;;;;2.53;1.80;;;25.30;87.30;;;;;;7395468;19;20131;-73
2022/06/14 11:11:26;;;;;;;4.85;2.50;;;25.10;87.60;;;;;;7391864;19;20138;-74
2022/06/14 11:14:12;;;;;;;2.90;2.30;;;25.30;86.10;;;;;;7388842;19;20131;-71
2022/06/14 11:16:56;;;;;;;3.33;2.17;;;25.20;86.30;;;;;;7391892;19;20139;-72
2022/06/14 11:19:49;;;;;;;4.57;2.00;;;25.30;86.30;;;;;;7391583;19;20184;-70
2022/06/14 11:22:35;;;;;;;4.25;2.25;;;25.40;86.10;;;;;;7390397;19;20142;-71
2022/06/14 11:25:10;;;;;;;2.20;1.98;;;25.50;86.00;;;;;;7389751;19;20142;-72
2022/06/14 11:27:50;;;;;;;5.05;2.22;;;25.60;86.80;;;;;;7395442;19;20162;-71
2022/06/14 11:30:18;;;;;;;4.22;2.30;;;25.70;85.50;;;;;;7392583;19;20231;-75
2022/06/14 11:33:13;;;;;;;4.35;1.98;;;25.60;84.80;;;;;;7392344;19;20144;-74
2022/06/14 11:35:55;;;;;;;4.80;2.33;;;25.40;85.20;;;;;;7391525;19;20181;-73
2022/06/14 11:38:46;;;;;;;2.72;2.13;;;25.40;85.30;;;;;;7392368;19;20143;-71
2022/06/14 11:41:15;;;;;;;5.55;2.03;;;25.40;85.10;;;;;;7389174;19;20150;-73
2022/06/14 11:44:08;;;;;;;3.45;2.17;;;25.40;84.30;;;;;;7387715;19;20142;-70
2022/06/14 11:46:37;;;;;;;4.07;2.70;;;25.30;83.90;;;;;;7392808;19;20134;-73
2022/06/14 11:49:27;;;;;;;3.03;2.10;;;25.40;85.00;;;;;;7388761;19;20139;-74
2022/06/14 11:52:16;;;;;;;3.30;1.60;;;25.50;83.30;;;;;;7391435;19;20161;-70
2022/06/14 11:54:57;;;;;;;3.95;2.00;;;25.50;82.90;;;;;;7390109;19;20139;-73
2022/06/14 11:57:43;;;;;;;4.65;2.33;;;25.40;82.40;;;;;;7392899;19;20134;-71
2022/06/14 12:00:35;;;;;;;6.57;2.10;;;25.50;83.50;;;;;;7389970;19;20163;-73
2022/06/14 12:03:10;;;;;;;4.90;2.30;;;25.60;83.40;;;;;;7392206;19;20142;-73
2022/06/14 12:05:40;;;;;;;3.67;1.92;;;25.70;82.60;;;;;;7393639;19;20134;-69
2022/06/14 12:08:47;;;;;;;4.63;1.67;;;25.70;83.70;;;;;;7391381;19;20234;-73
2022/06/14 12:11:31;;;;;;;5.07;2.30;;;25.90;82.50;;;;;;7389435;19;20499;-74
2022/06/14 12:14:28;;;;;;;3.08;2.15;;;25.90;82.20;;;;;;7390234;19;20202;-73
2022/06/14 12:17:19;;;;;;;3.00;1.75;;;25.90;82.30;;;;;;7389555;19;20487;-71
2022/06/14 12:19:52;;;;;;;3.53;1.70;;;25.90;82.70;;;;;;7384940;19;20252;-73
2022/06/14 12:22:32;;;;;;;3.63;1.90;;;26.10;82.20;;;;;;7391464;19;20158;-70
2022/06/14 12:27:57;;;;;;;3.92;2.22;;;26.20;80.20;;;;;;7392726;19;20142;-75
2022/06/14 12:30:27;;;;;;;5.30;2.30;;;26.30;79.20;;;;;;7388782;19;20166;-70
2022/06/14 12:33:00;;;;;;;4.25;1.98;;;26.10;80.10;;;;;;7390770;19;20487;-71
2022/06/14 12:35:30;;;;;;;5.25;3.30;;;26.10;79.60;;;;;;7388146;19;20135;-70
2022/06/14 12:38:11;;;;;;;3.45;2.15;;;26.00;79.70;;;;;;7388228;19;20514;-71
2022/06/14 12:40:43;;;;;;;5.15;2.10;;;26.00;80.20;;;;;;7392102;19;20130;-71
2022/06/14 12:43:15;;;;;;;3.20;1.83;;;25.90;80.80;;;;;;7389532;19;20826;-70
2022/06/14 12:45:52;;;;;;;3.10;1.90;;;25.80;81.00;;;;;;7391766;19;20142;-74
2022/06/14 12:48:36;;;;;;;4.07;2.30;;;25.90;80.70;;;;;;7389784;19;20131;-70
2022/06/14 12:51:18;;;;;;;2.30;1.70;;;25.90;81.10;;;;;;7389596;19;20142;-70
2022/06/14 12:54:13;;;;;;;3.67;2.05;;;26.00;81.10;;;;;;7392845;19;20214;-72
2022/06/14 12:56:54;;;;;;;3.47;2.05;;;26.10;81.00;;;;;;7390111;19;20146;-74
2022/06/14 12:59:41;;;;;;;2.60;1.70;;;26.10;81.10;;;;;;7390751;19;20545;-71
2022/06/14 13:02:33;;;;;;;3.22;2.20;;;26.10;81.00;;;;;;7389240;19;20154;-74
2022/06/14 13:05:10;;;;;;;2.85;1.65;;;25.90;81.50;;;;;;7390443;19;20164;-75
2022/06/14 13:07:59;;;;;;;2.65;1.67;;;25.90;82.40;;;;;;7392859;19;20215;-74
2022/06/14 13:10:41;;;;;;;3.53;1.80;;;26.10;82.20;;;;;;7393995;19;20211;-74
2022/06/14 13:13:22;;;;;;;5.47;1.85;;;26.20;80.10;;;;;;7385686;19;20142;-73
2022/06/14 13:16:00;;;;;;;2.60;1.30;;;26.20;79.50;;;;;;7387677;19;20172;-74
2022/06/14 13:18:51;;;;;;;3.38;1.88;;;26.40;80.00;;;;;;7391770;19;20138;-70
2022/06/14 13:22:03;;;;;;;4.25;1.83;;;26.40;80.10;;;;;;7390158;19;20145;-71
2022/06/14 13:24:37;;;;;;;3.28;1.90;;;26.40;79.70;;;;;;7387174;19;20218;-71
2022/06/14 13:27:33;;;;;;;3.92;1.80;;;26.50;80.50;;;;;;7381703;19;20469;-74
2022/06/14 13:30:17;;;;;;;3.20;1.70;;;26.30;80.60;;;;;;7389280;19;20134;-70
2022/06/14 13:32:55;;;;;;;5.78;4.15;;;26.40;81.30;;;;;;7386963;19;20122;-71
2022/06/14 13:35:43;;;;;;;6.97;3.50;;;26.60;81.00;;;;;;7386893;19;20130;-73
2022/06/14 13:38:15;;;;;;;4.63;1.67;;;26.60;81.00;;;;;;7388477;19;20135;-74
2022/06/14 13:40:50;;;;;;;3.33;1.98;;;26.60;80.30;;;;;;7390229;19;20130;-71
2022/06/14 13:43:28;;;;;;;2.83;1.80;;;26.50;79.50;;;;;;7389395;19;20138;-73
2022/06/14 13:46:06;;;;;;;2.40;1.58;;;26.50;80.30;;;;;;7389736;19;20131;-71
2022/06/14 13:48:57;;;;;;;4.07;1.75;;;26.70;79.30;;;;;;7390976;19;20134;-71
2022/06/14 13:51:42;;;;;;;3.38;1.77;;;26.50;78.40;;;;;;7388599;19;20130;-74
2022/06/14 13:54:14;;;;;;;2.63;1.50;;;26.50;78.90;;;;;;7390200;19;20167;-72
2022/06/14 13:56:58;;;;;;;2.92;1.90;;;26.40;78.10;;;;;;7386520;19;20138;-74
2022/06/14 13:59:30;;;;;;;2.88;2.03;;;26.30;78.40;;;;;;7390910;19;20142;-74
2022/06/14 14:02:14;;;;;;;3.53;1.65;;;26.40;78.30;;;;;;7387728;19;20445;-71
2022/06/14 14:04:56;;;;;;;3.53;1.60;;;26.60;78.00;;;;;;7385896;19;20157;-71
2022/06/14 14:07:30;;;;;;;2.63;1.70;;;26.40;77.80;;;;;;7385852;19;20138;-69
2022/06/14 14:10:14;;;;;;;3.75;2.13;;;26.50;78.70;;;;;;7388878;19;20139;-70